TAF Text Data
IDs:
Format:
Raw Decoded Include METAR

Data at: 0226 UTC 29 May 2022

KCHA 282326Z 2900/2924 VRB02KT P6SM SKC
  FM291600 16005KT P6SM FEW050